sensor_id;sensor_type;location;lat;lon;timestamp;P1;durP1;ratioP1;P2;durP2;ratioP2
5630;SDS011;2837;50.990;7.124;2023-04-24T05:01:59;151.27;;;8.30;;
5630;SDS011;2837;50.990;7.124;2023-04-24T05:04:24;152.17;;;8.00;;
5630;SDS011;2837;50.990;7.124;2023-04-24T05:06:50;151.60;;;8.30;;
5630;SDS011;2837;50.990;7.124;2023-04-24T05:09:17;152.80;;;8.70;;
5630;SDS011;2837;50.990;7.124;2023-04-24T05:11:43;172.30;;;8.30;;
5630;SDS011;2837;50.990;7.124;2023-04-24T05:14:08;152.87;;;9.10;;
5630;SDS011;2837;50.990;7.124;2023-04-24T05:16:34;152.50;;;8.77;;
5630;SDS011;2837;50.990;7.124;2023-04-24T05:18:59;151.17;;;8.20;;
5630;SDS011;2837;50.990;7.124;2023-04-24T05:21:25;151.20;;;7.90;;
5630;SDS011;2837;50.990;7.124;2023-04-24T05:23:51;152.17;;;8.37;;
5630;SDS011;2837;50.990;7.124;2023-04-24T05:26:17;152.73;;;8.97;;
5630;SDS011;2837;50.990;7.124;2023-04-24T05:28:43;150.77;;;8.00;;
5630;SDS011;2837;50.990;7.124;2023-04-24T05:31:08;153.97;;;8.67;;
5630;SDS011;2837;50.990;7.124;2023-04-24T05:33:34;152.67;;;8.67;;
5630;SDS011;2837;50.990;7.124;2023-04-24T05:35:59;152.20;;;8.60;;
5630;SDS011;2837;50.990;7.124;2023-04-24T05:38:25;152.10;;;8.10;;
5630;SDS011;2837;50.990;7.124;2023-04-24T05:40:50;153.17;;;8.07;;
5630;SDS011;2837;50.990;7.124;2023-04-24T05:43:16;153.27;;;9.50;;
5630;SDS011;2837;50.990;7.124;2023-04-24T05:45:42;153.60;;;8.70;;
5630;SDS011;2837;50.990;7.124;2023-04-24T05:48:07;151.43;;;7.90;;
5630;SDS011;2837;50.990;7.124;2023-04-24T05:50:33;153.63;;;8.30;;
5630;SDS011;2837;50.990;7.124;2023-04-24T05:52:58;152.03;;;8.57;;
5630;SDS011;2837;50.990;7.124;2023-04-24T05:55:24;152.97;;;9.00;;
5630;SDS011;2837;50.990;7.124;2023-04-24T05:57:50;156.80;;;9.13;;
5630;SDS011;2837;50.990;7.124;2023-04-24T06:00:16;152.57;;;8.33;;
5630;SDS011;2837;50.990;7.124;2023-04-24T06:02:44;152.60;;;9.03;;
5630;SDS011;2837;50.990;7.124;2023-04-24T06:05:10;152.67;;;8.53;;
5630;SDS011;2837;50.990;7.124;2023-04-24T06:07:36;152.77;;;8.30;;
5630;SDS011;2837;50.990;7.124;2023-04-24T06:10:01;151.13;;;8.20;;
5630;SDS011;2837;50.990;7.124;2023-04-24T06:12:27;153.00;;;8.70;;
5630;SDS011;2837;50.990;7.124;2023-04-24T06:14:53;153.60;;;9.00;;
5630;SDS011;2837;50.990;7.124;2023-04-24T06:17:20;153.23;;;8.60;;
5630;SDS011;2837;50.990;7.124;2023-04-24T06:19:46;156.57;;;9.20;;
5630;SDS011;2837;50.990;7.124;2023-04-24T06:22:11;152.87;;;9.13;;
5630;SDS011;2837;50.990;7.124;2023-04-24T06:24:37;152.77;;;8.63;;
5630;SDS011;2837;50.990;7.124;2023-04-24T06:27:04;152.93;;;9.00;;
5630;SDS011;2837;50.990;7.124;2023-04-24T06:29:30;152.17;;;8.70;;
5630;SDS011;2837;50.990;7.124;2023-04-24T06:31:56;152.47;;;8.67;;
5630;SDS011;2837;50.990;7.124;2023-04-24T06:34:21;152.90;;;8.00;;
5630;SDS011;2837;50.990;7.124;2023-04-24T06:36:47;153.10;;;8.87;;
5630;SDS011;2837;50.990;7.124;2023-04-24T06:39:13;153.03;;;9.20;;
5630;SDS011;2837;50.990;7.124;2023-04-24T06:41:38;152.60;;;9.10;;
5630;SDS011;2837;50.990;7.124;2023-04-24T06:44:04;152.83;;;8.37;;
5630;SDS011;2837;50.990;7.124;2023-04-24T06:46:30;153.30;;;9.20;;
5630;SDS011;2837;50.990;7.124;2023-04-24T06:48:56;153.10;;;8.53;;
5630;SDS011;2837;50.990;7.124;2023-04-24T06:51:24;154.87;;;9.63;;
5630;SDS011;2837;50.990;7.124;2023-04-24T06:53:51;152.87;;;8.30;;
5630;SDS011;2837;50.990;7.124;2023-04-24T06:56:18;152.93;;;8.50;;
5630;SDS011;2837;50.990;7.124;2023-04-24T06:58:44;154.77;;;9.13;;
5630;SDS011;2837;50.990;7.124;2023-04-24T07:01:10;153.60;;;8.93;;
5630;SDS011;2837;50.990;7.124;2023-04-24T07:03:36;152.67;;;8.33;;
5630;SDS011;2837;50.990;7.124;2023-04-24T07:06:01;153.90;;;8.80;;
5630;SDS011;2837;50.990;7.124;2023-04-24T07:08:28;152.00;;;7.97;;
5630;SDS011;2837;50.990;7.124;2023-04-24T07:10:55;152.53;;;7.80;;
5630;SDS011;2837;50.990;7.124;2023-04-24T07:13:21;152.40;;;7.90;;
5630;SDS011;2837;50.990;7.124;2023-04-24T07:15:47;152.50;;;8.20;;
5630;SDS011;2837;50.990;7.124;2023-04-24T07:18:15;152.10;;;7.90;;
5630;SDS011;2837;50.990;7.124;2023-04-24T07:20:41;151.20;;;7.40;;
5630;SDS011;2837;50.990;7.124;2023-04-24T07:23:06;150.73;;;7.37;;
5630;SDS011;2837;50.990;7.124;2023-04-24T07:25:32;151.60;;;7.20;;
5630;SDS011;2837;50.990;7.124;2023-04-24T07:27:58;153.07;;;8.30;;
5630;SDS011;2837;50.990;7.124;2023-04-24T07:30:24;152.27;;;7.83;;
5630;SDS011;2837;50.990;7.124;2023-04-24T07:32:50;151.50;;;7.80;;
5630;SDS011;2837;50.990;7.124;2023-04-24T07:35:15;152.87;;;8.23;;
5630;SDS011;2837;50.990;7.124;2023-04-24T07:37:41;152.80;;;8.20;;
5630;SDS011;2837;50.990;7.124;2023-04-24T07:40:10;151.37;;;7.87;;
5630;SDS011;2837;50.990;7.124;2023-04-24T07:42:37;151.47;;;7.40;;
5630;SDS011;2837;50.990;7.124;2023-04-24T07:45:03;152.07;;;7.90;;
5630;SDS011;2837;50.990;7.124;2023-04-24T07:47:29;152.27;;;7.87;;
5630;SDS011;2837;50.990;7.124;2023-04-24T07:49:55;152.37;;;7.60;;
5630;SDS011;2837;50.990;7.124;2023-04-24T07:52:21;151.90;;;7.90;;
5630;SDS011;2837;50.990;7.124;2023-04-24T07:54:46;151.20;;;7.07;;
5630;SDS011;2837;50.990;7.124;2023-04-24T07:57:12;151.53;;;7.30;;
5630;SDS011;2837;50.990;7.124;2023-04-24T07:59:38;151.00;;;6.83;;
5630;SDS011;2837;50.990;7.124;2023-04-24T08:02:04;154.17;;;7.30;;
5630;SDS011;2837;50.990;7.124;2023-04-24T08:04:31;152.80;;;7.23;;
5630;SDS011;2837;50.990;7.124;2023-04-24T08:06:57;151.67;;;7.00;;
5630;SDS011;2837;50.990;7.124;2023-04-24T08:09:22;151.70;;;6.80;;
5630;SDS011;2837;50.990;7.124;2023-04-24T08:11:48;150.70;;;6.40;;
5630;SDS011;2837;50.990;7.124;2023-04-24T08:14:13;151.10;;;6.47;;
5630;SDS011;2837;50.990;7.124;2023-04-24T08:16:39;151.70;;;6.90;;
5630;SDS011;2837;50.990;7.124;2023-04-24T08:19:05;151.20;;;6.03;;
5630;SDS011;2837;50.990;7.124;2023-04-24T08:21:31;151.67;;;6.83;;
5630;SDS011;2837;50.990;7.124;2023-04-24T08:23:57;150.70;;;6.17;;
5630;SDS011;2837;50.990;7.124;2023-04-24T08:26:23;151.00;;;6.27;;
5630;SDS011;2837;50.990;7.124;2023-04-24T08:28:48;152.07;;;6.77;;
5630;SDS011;2837;50.990;7.124;2023-04-24T08:31:14;151.40;;;6.83;;
5630;SDS011;2837;50.990;7.124;2023-04-24T08:33:40;151.90;;;7.27;;
5630;SDS011;2837;50.990;7.124;2023-04-24T08:36:06;152.07;;;6.20;;
5630;SDS011;2837;50.990;7.124;2023-04-24T08:38:32;151.37;;;6.43;;
5630;SDS011;2837;50.990;7.124;2023-04-24T08:40:59;152.00;;;6.50;;
5630;SDS011;2837;50.990;7.124;2023-04-24T08:43:26;151.90;;;7.07;;
5630;SDS011;2837;50.990;7.124;2023-04-24T08:45:52;151.47;;;6.20;;
5630;SDS011;2837;50.990;7.124;2023-04-24T08:48:20;151.40;;;6.80;;
5630;SDS011;2837;50.990;7.124;2023-04-24T08:50:47;151.87;;;6.40;;
5630;SDS011;2837;50.990;7.124;2023-04-24T08:53:15;155.07;;;6.63;;
5630;SDS011;2837;50.990;7.124;2023-04-24T08:55:41;152.30;;;6.73;;
5630;SDS011;2837;50.990;7.124;2023-04-24T08:58:11;152.40;;;6.50;;
5630;SDS011;2837;50.990;7.124;2023-04-24T09:00:37;151.87;;;6.20;;
5630;SDS011;2837;50.990;7.124;2023-04-24T09:03:04;151.90;;;6.53;;
5630;SDS011;2837;50.990;7.124;2023-04-24T09:05:31;153.43;;;6.87;;
5630;SDS011;2837;50.990;7.124;2023-04-24T09:07:58;153.07;;;6.97;;
5630;SDS011;2837;50.990;7.124;2023-04-24T09:10:26;151.87;;;6.40;;
5630;SDS011;2837;50.990;7.124;2023-04-24T09:12:55;151.87;;;6.50;;
5630;SDS011;2837;50.990;7.124;2023-04-24T09:15:23;154.77;;;6.90;;
5630;SDS011;2837;50.990;7.124;2023-04-24T09:17:49;152.93;;;6.70;;
5630;SDS011;2837;50.990;7.124;2023-04-24T09:20:15;151.33;;;5.97;;
5630;SDS011;2837;50.990;7.124;2023-04-24T09:22:41;152.33;;;6.50;;
5630;SDS011;2837;50.990;7.124;2023-04-24T09:25:08;153.40;;;7.40;;
5630;SDS011;2837;50.990;7.124;2023-04-24T09:27:34;151.77;;;6.60;;
5630;SDS011;2837;50.990;7.124;2023-04-24T09:30:00;153.10;;;6.37;;
5630;SDS011;2837;50.990;7.124;2023-04-24T09:32:27;153.20;;;6.87;;
5630;SDS011;2837;50.990;7.124;2023-04-24T09:35:11;153.10;;;7.10;;
5630;SDS011;2837;50.990;7.124;2023-04-24T09:37:44;155.07;;;7.57;;
5630;SDS011;2837;50.990;7.124;2023-04-24T09:42:44;155.27;;;7.10;;
5630;SDS011;2837;50.990;7.124;2023-04-24T09:45:11;153.00;;;7.00;;
5630;SDS011;2837;50.990;7.124;2023-04-24T09:47:37;153.77;;;7.00;;
5630;SDS011;2837;50.990;7.124;2023-04-24T09:50:11;152.97;;;7.40;;
5630;SDS011;2837;50.990;7.124;2023-04-24T09:52:43;157.70;;;7.37;;
5630;SDS011;2837;50.990;7.124;2023-04-24T09:55:23;157.97;;;7.10;;
5630;SDS011;2837;50.990;7.124;2023-04-24T09:57:52;154.17;;;7.67;;
5630;SDS011;2837;50.990;7.124;2023-04-24T10:00:26;154.53;;;7.23;;
5630;SDS011;2837;50.990;7.124;2023-04-24T10:07:56;156.70;;;7.70;;
5630;SDS011;2837;50.990;7.124;2023-04-24T10:10:23;152.93;;;7.53;;
5630;SDS011;2837;50.990;7.124;2023-04-24T10:12:49;153.07;;;7.63;;
5630;SDS011;2837;50.990;7.124;2023-04-24T10:15:16;153.27;;;7.57;;
5630;SDS011;2837;50.990;7.124;2023-04-24T10:17:46;154.63;;;7.70;;
5630;SDS011;2837;50.990;7.124;2023-04-24T10:20:22;153.20;;;7.40;;
5630;SDS011;2837;50.990;7.124;2023-04-24T10:22:50;154.30;;;7.80;;
5630;SDS011;2837;50.990;7.124;2023-04-24T10:25:18;154.03;;;8.10;;
5630;SDS011;2837;50.990;7.124;2023-04-24T10:27:49;153.17;;;7.50;;
5630;SDS011;2837;50.990;7.124;2023-04-24T10:30:16;153.37;;;7.30;;
5630;SDS011;2837;50.990;7.124;2023-04-24T10:32:42;153.37;;;8.00;;
5630;SDS011;2837;50.990;7.124;2023-04-24T10:35:08;154.30;;;8.57;;
5630;SDS011;2837;50.990;7.124;2023-04-24T10:37:36;153.03;;;7.50;;
5630;SDS011;2837;50.990;7.124;2023-04-24T10:40:06;154.53;;;8.63;;
5630;SDS011;2837;50.990;7.124;2023-04-24T10:42:33;153.17;;;7.80;;
5630;SDS011;2837;50.990;7.124;2023-04-24T10:44:59;154.90;;;7.70;;
5630;SDS011;2837;50.990;7.124;2023-04-24T10:47:29;154.40;;;8.33;;
5630;SDS011;2837;50.990;7.124;2023-04-24T10:50:07;154.10;;;8.73;;
5630;SDS011;2837;50.990;7.124;2023-04-24T10:52:45;155.20;;;7.73;;
5630;SDS011;2837;50.990;7.124;2023-04-24T10:55:12;154.90;;;7.70;;
5630;SDS011;2837;50.990;7.124;2023-04-24T10:57:39;154.30;;;8.30;;
5630;SDS011;2837;50.990;7.124;2023-04-24T11:02:45;158.23;;;8.07;;
5630;SDS011;2837;50.990;7.124;2023-04-24T11:05:14;154.97;;;8.20;;
5630;SDS011;2837;50.990;7.124;2023-04-24T11:10:39;153.97;;;8.23;;
5630;SDS011;2837;50.990;7.124;2023-04-24T11:13:08;155.47;;;7.53;;
5630;SDS011;2837;50.990;7.124;2023-04-24T11:15:34;153.20;;;7.50;;
5630;SDS011;2837;50.990;7.124;2023-04-24T11:17:59;155.60;;;7.80;;
5630;SDS011;2837;50.990;7.124;2023-04-24T11:20:25;154.33;;;7.70;;
5630;SDS011;2837;50.990;7.124;2023-04-24T11:22:52;153.70;;;7.90;;
5630;SDS011;2837;50.990;7.124;2023-04-24T11:25:22;155.53;;;8.50;;
5630;SDS011;2837;50.990;7.124;2023-04-24T11:27:48;154.27;;;8.30;;
5630;SDS011;2837;50.990;7.124;2023-04-24T11:30:19;157.40;;;7.20;;
5630;SDS011;2837;50.990;7.124;2023-04-24T11:32:47;153.00;;;7.30;;
5630;SDS011;2837;50.990;7.124;2023-04-24T11:35:16;153.40;;;7.93;;
5630;SDS011;2837;50.990;7.124;2023-04-24T11:37:43;152.53;;;7.10;;
5630;SDS011;2837;50.990;7.124;2023-04-24T11:40:19;158.77;;;8.43;;
5630;SDS011;2837;50.990;7.124;2023-04-24T11:42:47;155.27;;;7.80;;
5630;SDS011;2837;50.990;7.124;2023-04-24T11:45:15;152.30;;;7.73;;
5630;SDS011;2837;50.990;7.124;2023-04-24T11:47:43;153.70;;;7.47;;
5630;SDS011;2837;50.990;7.124;2023-04-24T11:50:11;152.57;;;7.80;;
5630;SDS011;2837;50.990;7.124;2023-04-24T11:52:38;159.17;;;7.60;;
5630;SDS011;2837;50.990;7.124;2023-04-24T11:55:06;153.57;;;7.70;;
5630;SDS011;2837;50.990;7.124;2023-04-24T11:57:49;154.67;;;9.03;;
5630;SDS011;2837;50.990;7.124;2023-04-24T12:00:16;152.87;;;8.17;;
5630;SDS011;2837;50.990;7.124;2023-04-24T12:02:43;158.27;;;8.27;;
5630;SDS011;2837;50.990;7.124;2023-04-24T12:05:12;153.87;;;8.07;;
5630;SDS011;2837;50.990;7.124;2023-04-24T12:07:48;152.73;;;8.10;;
5630;SDS011;2837;50.990;7.124;2023-04-24T12:10:14;155.37;;;8.93;;
5630;SDS011;2837;50.990;7.124;2023-04-24T12:12:44;156.90;;;8.73;;
5630;SDS011;2837;50.990;7.124;2023-04-24T12:15:11;153.27;;;8.20;;
5630;SDS011;2837;50.990;7.124;2023-04-24T12:17:40;155.00;;;8.57;;
5630;SDS011;2837;50.990;7.124;2023-04-24T12:20:07;153.87;;;8.83;;
5630;SDS011;2837;50.990;7.124;2023-04-24T12:22:52;156.77;;;8.43;;
5630;SDS011;2837;50.990;7.124;2023-04-24T12:25:20;158.03;;;8.47;;
5630;SDS011;2837;50.990;7.124;2023-04-24T12:27:53;155.83;;;8.37;;
5630;SDS011;2837;50.990;7.124;2023-04-24T12:30:20;154.83;;;8.83;;
5630;SDS011;2837;50.990;7.124;2023-04-24T12:32:49;151.37;;;7.90;;
5630;SDS011;2837;50.990;7.124;2023-04-24T12:35:20;154.93;;;8.30;;
5630;SDS011;2837;50.990;7.124;2023-04-24T12:37:46;154.30;;;8.40;;
5630;SDS011;2837;50.990;7.124;2023-04-24T12:40:12;152.60;;;7.87;;
5630;SDS011;2837;50.990;7.124;2023-04-24T12:42:45;154.97;;;7.67;;
5630;SDS011;2837;50.990;7.124;2023-04-24T12:45:12;154.90;;;8.70;;
5630;SDS011;2837;50.990;7.124;2023-04-24T12:47:39;153.50;;;8.20;;
5630;SDS011;2837;50.990;7.124;2023-04-24T12:50:05;154.17;;;8.30;;
5630;SDS011;2837;50.990;7.124;2023-04-24T12:52:32;155.57;;;8.73;;
5630;SDS011;2837;50.990;7.124;2023-04-24T12:54:58;157.40;;;8.50;;
5630;SDS011;2837;50.990;7.124;2023-04-24T12:57:26;155.20;;;8.30;;
5630;SDS011;2837;50.990;7.124;2023-04-24T12:59:54;153.03;;;8.00;;
5630;SDS011;2837;50.990;7.124;2023-04-24T13:02:21;153.03;;;9.07;;
5630;SDS011;2837;50.990;7.124;2023-04-24T13:04:50;156.57;;;8.93;;
5630;SDS011;2837;50.990;7.124;2023-04-24T13:07:16;152.23;;;8.40;;
5630;SDS011;2837;50.990;7.124;2023-04-24T13:09:43;153.23;;;8.37;;
5630;SDS011;2837;50.990;7.124;2023-04-24T13:12:09;153.93;;;8.40;;
5630;SDS011;2837;50.990;7.124;2023-04-24T13:14:36;155.47;;;8.43;;
5630;SDS011;2837;50.990;7.124;2023-04-24T13:17:02;156.23;;;7.87;;
5630;SDS011;2837;50.990;7.124;2023-04-24T13:19:28;153.37;;;8.57;;
5630;SDS011;2837;50.990;7.124;2023-04-24T13:21:54;154.97;;;8.90;;
5630;SDS011;2837;50.990;7.124;2023-04-24T13:24:21;155.20;;;8.50;;
5630;SDS011;2837;50.990;7.124;2023-04-24T13:26:50;152.17;;;8.00;;
5630;SDS011;2837;50.990;7.124;2023-04-24T13:29:19;152.37;;;8.07;;
5630;SDS011;2837;50.990;7.124;2023-04-24T13:31:45;153.87;;;9.00;;
5630;SDS011;2837;50.990;7.124;2023-04-24T13:34:12;152.77;;;8.63;;
5630;SDS011;2837;50.990;7.124;2023-04-24T13:36:38;151.57;;;8.13;;
5630;SDS011;2837;50.990;7.124;2023-04-24T13:39:04;156.57;;;8.77;;
5630;SDS011;2837;50.990;7.124;2023-04-24T13:41:30;154.13;;;8.60;;
5630;SDS011;2837;50.990;7.124;2023-04-24T13:43:57;153.10;;;8.57;;
5630;SDS011;2837;50.990;7.124;2023-04-24T13:46:23;153.80;;;8.00;;
5630;SDS011;2837;50.990;7.124;2023-04-24T13:48:48;152.40;;;8.60;;
5630;SDS011;2837;50.990;7.124;2023-04-24T13:51:14;153.33;;;8.00;;
5630;SDS011;2837;50.990;7.124;2023-04-24T13:53:40;153.47;;;9.00;;
5630;SDS011;2837;50.990;7.124;2023-04-24T13:56:05;150.73;;;7.67;;
5630;SDS011;2837;50.990;7.124;2023-04-24T13:58:31;151.97;;;8.50;;
5630;SDS011;2837;50.990;7.124;2023-04-24T14:01:01;151.47;;;7.63;;
5630;SDS011;2837;50.990;7.124;2023-04-24T14:03:26;151.10;;;7.63;;
5630;SDS011;2837;50.990;7.124;2023-04-24T14:05:52;154.77;;;8.60;;
5630;SDS011;2837;50.990;7.124;2023-04-24T14:08:17;151.77;;;8.10;;
5630;SDS011;2837;50.990;7.124;2023-04-24T14:10:43;151.10;;;8.00;;
5630;SDS011;2837;50.990;7.124;2023-04-24T14:13:08;152.17;;;8.43;;
5630;SDS011;2837;50.990;7.124;2023-04-24T14:15:35;153.30;;;8.80;;
5630;SDS011;2837;50.990;7.124;2023-04-24T14:18:01;151.67;;;7.87;;
5630;SDS011;2837;50.990;7.124;2023-04-24T14:20:26;151.27;;;7.90;;
5630;SDS011;2837;50.990;7.124;2023-04-24T14:22:52;151.67;;;7.60;;
5630;SDS011;2837;50.990;7.124;2023-04-24T14:25:18;152.67;;;8.50;;
5630;SDS011;2837;50.990;7.124;2023-04-24T14:27:44;151.20;;;7.33;;
5630;SDS011;2837;50.990;7.124;2023-04-24T14:30:10;157.20;;;9.17;;
5630;SDS011;2837;50.990;7.124;2023-04-24T14:32:38;150.83;;;7.97;;
5630;SDS011;2837;50.990;7.124;2023-04-24T14:35:04;151.03;;;8.03;;
5630;SDS011;2837;50.990;7.124;2023-04-24T14:37:31;151.10;;;7.70;;
5630;SDS011;2837;50.990;7.124;2023-04-24T14:39:56;152.03;;;8.47;;
5630;SDS011;2837;50.990;7.124;2023-04-24T14:42:22;152.97;;;8.40;;
5630;SDS011;2837;50.990;7.124;2023-04-24T14:44:48;150.30;;;7.50;;
5630;SDS011;2837;50.990;7.124;2023-04-24T14:47:13;152.50;;;8.23;;
5630;SDS011;2837;50.990;7.124;2023-04-24T14:49:39;153.77;;;8.37;;
5630;SDS011;2837;50.990;7.124;2023-04-24T14:52:04;149.97;;;7.60;;
5630;SDS011;2837;50.990;7.124;2023-04-24T14:54:30;151.87;;;7.90;;
5630;SDS011;2837;50.990;7.124;2023-04-24T14:56:55;152.87;;;8.40;;
5630;SDS011;2837;50.990;7.124;2023-04-24T14:59:24;153.67;;;8.30;;
5630;SDS011;2837;50.990;7.124;2023-04-24T15:01:49;152.23;;;8.00;;
5630;SDS011;2837;50.990;7.124;2023-04-24T15:04:17;151.03;;;7.60;;
5630;SDS011;2837;50.990;7.124;2023-04-24T15:06:43;150.43;;;7.70;;
5630;SDS011;2837;50.990;7.124;2023-04-24T15:09:08;153.70;;;7.53;;
5630;SDS011;2837;50.990;7.124;2023-04-24T15:11:34;152.77;;;8.20;;
5630;SDS011;2837;50.990;7.124;2023-04-24T15:14:00;153.17;;;7.87;;
5630;SDS011;2837;50.990;7.124;2023-04-24T15:16:25;152.07;;;7.90;;
5630;SDS011;2837;50.990;7.124;2023-04-24T15:18:51;150.50;;;7.43;;
5630;SDS011;2837;50.990;7.124;2023-04-24T15:21:17;150.37;;;8.37;;
5630;SDS011;2837;50.990;7.124;2023-04-24T15:23:42;151.30;;;7.80;;
5630;SDS011;2837;50.990;7.124;2023-04-24T15:26:08;150.50;;;7.20;;
5630;SDS011;2837;50.990;7.124;2023-04-24T15:28:33;153.70;;;8.20;;
5630;SDS011;2837;50.990;7.124;2023-04-24T15:30:59;149.87;;;7.33;;
5630;SDS011;2837;50.990;7.124;2023-04-24T15:33:25;150.60;;;8.07;;
5630;SDS011;2837;50.990;7.124;2023-04-24T15:35:50;151.17;;;8.10;;
5630;SDS011;2837;50.990;7.124;2023-04-24T15:38:16;150.77;;;7.73;;
5630;SDS011;2837;50.990;7.124;2023-04-24T15:40:41;151.30;;;7.67;;
5630;SDS011;2837;50.990;7.124;2023-04-24T15:43:07;150.57;;;8.13;;
5630;SDS011;2837;50.990;7.124;2023-04-24T15:45:33;150.00;;;7.40;;
5630;SDS011;2837;50.990;7.124;2023-04-24T15:47:58;151.60;;;7.37;;
5630;SDS011;2837;50.990;7.124;2023-04-24T15:50:24;153.97;;;7.73;;
5630;SDS011;2837;50.990;7.124;2023-04-24T15:52:50;151.00;;;8.23;;
5630;SDS011;2837;50.990;7.124;2023-04-24T15:55:16;150.47;;;7.53;;
5630;SDS011;2837;50.990;7.124;2023-04-24T15:57:42;153.37;;;8.43;;
5630;SDS011;2837;50.990;7.124;2023-04-24T16:00:08;151.23;;;7.53;;
5630;SDS011;2837;50.990;7.124;2023-04-24T16:02:34;151.30;;;7.60;;
5630;SDS011;2837;50.990;7.124;2023-04-24T16:05:00;150.77;;;7.73;;
5630;SDS011;2837;50.990;7.124;2023-04-24T16:07:26;152.50;;;7.57;;
5630;SDS011;2837;50.990;7.124;2023-04-24T16:09:51;151.37;;;7.17;;
5630;SDS011;2837;50.990;7.124;2023-04-24T16:12:17;154.00;;;8.37;;
5630;SDS011;2837;50.990;7.124;2023-04-24T16:14:43;150.47;;;8.00;;
5630;SDS011;2837;50.990;7.124;2023-04-24T16:17:08;151.00;;;8.20;;
5630;SDS011;2837;50.990;7.124;2023-04-24T16:19:34;150.57;;;7.70;;
5630;SDS011;2837;50.990;7.124;2023-04-24T16:22:00;150.90;;;7.57;;
5630;SDS011;2837;50.990;7.124;2023-04-24T16:24:27;152.40;;;7.97;;
5630;SDS011;2837;50.990;7.124;2023-04-24T16:26:53;152.37;;;7.73;;
5630;SDS011;2837;50.990;7.124;2023-04-24T16:29:20;152.47;;;7.90;;
5630;SDS011;2837;50.990;7.124;2023-04-24T16:31:46;150.57;;;7.33;;
5630;SDS011;2837;50.990;7.124;2023-04-24T16:34:12;152.87;;;7.63;;
5630;SDS011;2837;50.990;7.124;2023-04-24T16:36:37;152.13;;;7.40;;
5630;SDS011;2837;50.990;7.124;2023-04-24T16:39:03;153.50;;;8.00;;
5630;SDS011;2837;50.990;7.124;2023-04-24T16:41:32;151.17;;;8.00;;
5630;SDS011;2837;50.990;7.124;2023-04-24T16:43:58;150.47;;;7.70;;
5630;SDS011;2837;50.990;7.124;2023-04-24T16:46:23;150.57;;;7.50;;
5630;SDS011;2837;50.990;7.124;2023-04-24T16:48:49;150.90;;;8.10;;
5630;SDS011;2837;50.990;7.124;2023-04-24T16:51:15;150.93;;;8.07;;
5630;SDS011;2837;50.990;7.124;2023-04-24T16:53:41;150.97;;;8.07;;
5630;SDS011;2837;50.990;7.124;2023-04-24T16:56:06;150.80;;;7.73;;
5630;SDS011;2837;50.990;7.124;2023-04-24T16:58:32;152.50;;;8.00;;
5630;SDS011;2837;50.990;7.124;2023-04-24T17:00:58;150.47;;;7.60;;
5630;SDS011;2837;50.990;7.124;2023-04-24T17:03:23;149.87;;;7.70;;
5630;SDS011;2837;50.990;7.124;2023-04-24T17:05:49;150.27;;;7.60;;
5630;SDS011;2837;50.990;7.124;2023-04-24T17:08:15;150.37;;;7.83;;
5630;SDS011;2837;50.990;7.124;2023-04-24T17:10:40;151.97;;;7.83;;
5630;SDS011;2837;50.990;7.124;2023-04-24T17:13:06;151.20;;;7.80;;
5630;SDS011;2837;50.990;7.124;2023-04-24T17:15:32;150.80;;;7.60;;
5630;SDS011;2837;50.990;7.124;2023-04-24T17:17:59;152.70;;;7.47;;
5630;SDS011;2837;50.990;7.124;2023-04-24T17:20:25;151.87;;;7.87;;
5630;SDS011;2837;50.990;7.124;2023-04-24T17:22:50;150.73;;;7.93;;
5630;SDS011;2837;50.990;7.124;2023-04-24T17:25:16;153.77;;;7.90;;
5630;SDS011;2837;50.990;7.124;2023-04-24T17:27:43;151.03;;;7.33;;
5630;SDS011;2837;50.990;7.124;2023-04-24T17:30:08;150.27;;;7.03;;
5630;SDS011;2837;50.990;7.124;2023-04-24T17:32:34;151.87;;;7.70;;
5630;SDS011;2837;50.990;7.124;2023-04-24T17:35:00;150.87;;;7.57;;
5630;SDS011;2837;50.990;7.124;2023-04-24T17:37:26;151.27;;;7.50;;
5630;SDS011;2837;50.990;7.124;2023-04-24T17:39:51;151.60;;;7.33;;
5630;SDS011;2837;50.990;7.124;2023-04-24T17:42:17;153.40;;;8.47;;
5630;SDS011;2837;50.990;7.124;2023-04-24T17:44:42;150.87;;;7.20;;
5630;SDS011;2837;50.990;7.124;2023-04-24T17:47:08;150.67;;;8.07;;
5630;SDS011;2837;50.990;7.124;2023-04-24T17:49:34;149.97;;;7.50;;
5630;SDS011;2837;50.990;7.124;2023-04-24T17:52:02;150.97;;;7.97;;
5630;SDS011;2837;50.990;7.124;2023-04-24T17:54:28;150.47;;;7.70;;
5630;SDS011;2837;50.990;7.124;2023-04-24T17:56:53;153.60;;;7.50;;
5630;SDS011;2837;50.990;7.124;2023-04-24T17:59:19;150.67;;;7.83;;
5630;SDS011;2837;50.990;7.124;2023-04-24T18:01:46;150.80;;;7.50;;
5630;SDS011;2837;50.990;7.124;2023-04-24T18:04:11;151.00;;;8.10;;
5630;SDS011;2837;50.990;7.124;2023-04-24T18:06:37;151.27;;;8.30;;
5630;SDS011;2837;50.990;7.124;2023-04-24T18:09:03;152.70;;;8.20;;
5630;SDS011;2837;50.990;7.124;2023-04-24T18:11:29;151.67;;;7.80;;
5630;SDS011;2837;50.990;7.124;2023-04-24T18:13:54;151.17;;;7.93;;
5630;SDS011;2837;50.990;7.124;2023-04-24T18:16:20;151.87;;;8.37;;
5630;SDS011;2837;50.990;7.124;2023-04-24T18:18:46;151.13;;;8.30;;
5630;SDS011;2837;50.990;7.124;2023-04-24T18:21:11;157.60;;;7.90;;
5630;SDS011;2837;50.990;7.124;2023-04-24T18:23:37;150.83;;;8.50;;
5630;SDS011;2837;50.990;7.124;2023-04-24T18:26:02;152.07;;;8.60;;
5630;SDS011;2837;50.990;7.124;2023-04-24T18:28:28;152.37;;;7.80;;
5630;SDS011;2837;50.990;7.124;2023-04-24T18:30:55;154.73;;;8.40;;
5630;SDS011;2837;50.990;7.124;2023-04-24T18:33:22;151.70;;;8.27;;
5630;SDS011;2837;50.990;7.124;2023-04-24T18:35:48;151.73;;;8.00;;
5630;SDS011;2837;50.990;7.124;2023-04-24T18:38:13;150.17;;;7.07;;
5630;SDS011;2837;50.990;7.124;2023-04-24T18:40:39;154.20;;;7.40;;
5630;SDS011;2837;50.990;7.124;2023-04-24T18:43:05;151.43;;;8.13;;
5630;SDS011;2837;50.990;7.124;2023-04-24T18:45:30;150.70;;;7.30;;
5630;SDS011;2837;50.990;7.124;2023-04-24T18:47:56;153.00;;;8.07;;
5630;SDS011;2837;50.990;7.124;2023-04-24T18:50:22;152.50;;;7.50;;
5630;SDS011;2837;50.990;7.124;2023-04-24T18:52:49;157.80;;;8.20;;
5630;SDS011;2837;50.990;7.124;2023-04-24T18:55:15;150.77;;;7.67;;
5630;SDS011;2837;50.990;7.124;2023-04-24T18:57:41;151.10;;;7.87;;
5630;SDS011;2837;50.990;7.124;2023-04-24T19:00:06;151.90;;;7.47;;
5630;SDS011;2837;50.990;7.124;2023-04-24T19:02:32;151.67;;;7.50;;
5630;SDS011;2837;50.990;7.124;2023-04-24T19:04:58;153.77;;;8.60;;
5630;SDS011;2837;50.990;7.124;2023-04-24T19:07:24;151.57;;;8.00;;
5630;SDS011;2837;50.990;7.124;2023-04-24T19:09:50;152.23;;;8.60;;
5630;SDS011;2837;50.990;7.124;2023-04-24T19:12:15;152.93;;;8.57;;
5630;SDS011;2837;50.990;7.124;2023-04-24T19:14:41;156.60;;;8.13;;
5630;SDS011;2837;50.990;7.124;2023-04-24T19:17:07;152.60;;;8.30;;
5630;SDS011;2837;50.990;7.124;2023-04-24T19:19:34;151.63;;;8.00;;
5630;SDS011;2837;50.990;7.124;2023-04-24T19:22:00;150.90;;;7.90;;
5630;SDS011;2837;50.990;7.124;2023-04-24T19:24:26;152.37;;;7.93;;
5630;SDS011;2837;50.990;7.124;2023-04-24T19:26:53;154.00;;;7.57;;
5630;SDS011;2837;50.990;7.124;2023-04-24T19:29:19;151.17;;;7.97;;
5630;SDS011;2837;50.990;7.124;2023-04-24T19:31:45;151.73;;;8.20;;
5630;SDS011;2837;50.990;7.124;2023-04-24T19:34:10;153.20;;;7.57;;
5630;SDS011;2837;50.990;7.124;2023-04-24T19:36:36;152.50;;;7.73;;
5630;SDS011;2837;50.990;7.124;2023-04-24T19:39:02;153.50;;;8.10;;
5630;SDS011;2837;50.990;7.124;2023-04-24T19:41:27;152.53;;;7.90;;
5630;SDS011;2837;50.990;7.124;2023-04-24T19:43:53;153.67;;;8.13;;
5630;SDS011;2837;50.990;7.124;2023-04-24T19:46:19;151.73;;;7.50;;
5630;SDS011;2837;50.990;7.124;2023-04-24T19:48:44;154.40;;;8.77;;
5630;SDS011;2837;50.990;7.124;2023-04-24T19:51:10;152.40;;;7.33;;
5630;SDS011;2837;50.990;7.124;2023-04-24T19:53:35;153.40;;;8.40;;
5630;SDS011;2837;50.990;7.124;2023-04-24T19:56:01;154.07;;;7.87;;
5630;SDS011;2837;50.990;7.124;2023-04-24T19:58:27;151.87;;;7.80;;